Time;durP1;ratioP1;P1;durP2;ratioP2;P2;SDS_P1;SDS_P2;PMS_P1;PMS_P2;Temp;Humidity;BMP_temperature;BMP_pressure;BME280_temperature;BME280_humidity;BME280_pressure;Samples;Min_cycle;Max_cycle;Signal;HPM_P1;HPM_P2
2022/03/05 00:01:51;;;;;;;27.33;15.15;;;;;;;1.13;47.18;95208.47;5086330;28;20024;-75
2022/03/05 00:04:17;;;;;;;26.73;15.13;;;;;;;1.07;47.23;95204.53;5086581;28;20020;-75
2022/03/05 00:06:43;;;;;;;35.38;16.88;;;;;;;1.07;47.44;95201.88;5086017;28;20090;-75
2022/03/05 00:09:08;;;;;;;44.47;22.00;;;;;;;1.08;48.27;95206.19;5067662;28;20044;-76
2022/03/05 00:11:33;;;;;;;42.50;21.45;;;;;;;1.09;48.49;95207.06;5086085;28;20556;-75
2022/03/05 00:13:59;;;;;;;32.33;17.23;;;;;;;0.90;48.40;95203.25;5086919;28;20024;-75
2022/03/05 00:16:24;;;;;;;34.65;17.58;;;;;;;0.81;48.91;95210.09;5070128;28;20024;-74
2022/03/05 00:18:50;;;;;;;28.40;16.85;;;;;;;0.72;48.73;95202.91;5087624;28;20796;-76
2022/03/05 00:21:15;;;;;;;32.88;18.13;;;;;;;0.69;48.76;95198.72;5087124;28;20024;-76
2022/03/05 00:23:41;;;;;;;35.47;18.02;;;;;;;0.80;48.17;95208.44;5085770;28;20032;-74
2022/03/05 00:26:06;;;;;;;33.20;18.50;;;;;;;0.80;48.66;95211.06;5088587;28;20024;-74
2022/03/05 00:28:32;;;;;;;32.80;17.40;;;;;;;0.70;49.87;95207.47;5086873;28;20483;-75
2022/03/05 00:31:00;;;;;;;32.63;18.88;;;;;;;0.62;50.29;95208.06;5087592;28;20084;-75
2022/03/05 00:33:25;;;;;;;37.38;19.92;;;;;;;0.54;50.35;95200.78;5088081;28;20030;-76
2022/03/05 00:35:51;;;;;;;34.42;17.17;;;;;;;0.35;50.10;95207.50;5086330;28;20016;-75
2022/03/05 00:38:16;;;;;;;31.45;17.45;;;;;;;0.31;50.18;95203.41;5086953;28;20039;-76
2022/03/05 00:40:42;;;;;;;34.90;17.20;;;;;;;0.48;50.35;95198.63;5085883;28;20414;-75
2022/03/05 00:43:07;;;;;;;34.10;17.45;;;;;;;0.38;50.35;95201.13;5086393;28;20056;-76
2022/03/05 00:45:33;;;;;;;28.60;16.15;;;;;;;0.33;50.60;95200.63;5085410;28;20105;-75
2022/03/05 00:47:58;;;;;;;29.85;16.50;;;;;;;0.35;50.72;95201.38;5086528;28;20442;-75
2022/03/05 00:50:24;;;;;;;25.25;14.90;;;;;;;0.29;50.93;95199.22;5084079;28;20032;-76
2022/03/05 00:52:49;;;;;;;32.65;15.88;;;;;;;0.29;50.94;95193.94;5087311;28;20024;-75
2022/03/05 00:55:15;;;;;;;27.65;15.60;;;;;;;0.31;51.54;95190.22;5067985;28;20032;-75
2022/03/05 00:57:40;;;;;;;27.50;15.30;;;;;;;0.33;50.77;95188.28;5086748;28;20035;-75
2022/03/05 01:00:06;;;;;;;25.42;14.63;;;;;;;0.45;50.38;95189.13;5085888;28;20397;-75
2022/03/05 01:02:32;;;;;;;29.58;14.43;;;;;;;0.40;50.92;95187.81;5085086;28;20034;-75
2022/03/05 01:04:57;;;;;;;27.33;14.70;;;;;;;0.40;50.67;95183.38;5087674;28;20024;-75
2022/03/05 01:07:22;;;;;;;30.90;16.58;;;;;;;0.29;51.33;95186.84;5085229;28;20052;-76
2022/03/05 01:09:48;;;;;;;26.30;14.80;;;;;;;0.18;51.46;95184.22;5087059;28;20078;-75
2022/03/05 01:12:13;;;;;;;33.13;15.90;;;;;;;0.23;51.98;95184.69;5086303;28;20089;-75
2022/03/05 01:14:39;;;;;;;28.45;15.88;;;;;;;0.14;51.95;95182.75;5086873;28;20020;-75
2022/03/05 01:17:04;;;;;;;30.10;14.73;;;;;;;0.11;51.64;95179.41;5084958;28;20032;-75
2022/03/05 01:19:30;;;;;;;28.25;15.43;;;;;;;0.17;51.99;95185.16;5086675;28;20492;-76
2022/03/05 01:21:55;;;;;;;27.38;15.48;;;;;;;0.16;52.13;95181.69;5087443;28;20024;-75
2022/03/05 01:24:20;;;;;;;25.30;14.98;;;;;;;-0.08;52.12;95179.16;5067340;28;20039;-75
2022/03/05 01:26:47;;;;;;;26.50;15.05;;;;;;;-0.08;52.08;95179.16;5086621;28;20028;-75
2022/03/05 01:29:13;;;;;;;28.98;14.93;;;;;;;-0.12;52.33;95183.81;5086226;28;20024;-75
2022/03/05 01:31:38;;;;;;;28.83;15.40;;;;;;;-0.16;53.07;95180.56;5068226;28;20044;-76
2022/03/05 01:34:04;;;;;;;27.42;16.10;;;;;;;-0.18;52.67;95179.84;5085193;28;20105;-75
2022/03/05 01:36:29;;;;;;;30.88;16.55;;;;;;;-0.11;52.81;95187.31;5086268;28;20040;-75
2022/03/05 01:38:54;;;;;;;28.98;14.85;;;;;;;-0.09;53.02;95180.09;5086971;28;20020;-75
2022/03/05 01:41:20;;;;;;;32.33;15.07;;;;;;;-0.07;53.16;95186.94;5085925;28;20024;-75
2022/03/05 01:43:52;;;;;;;27.13;15.50;;;;;;;-0.17;53.79;95184.16;5085639;28;20152;-75
2022/03/05 01:46:35;;;;;;;34.90;15.98;;;;;;;-0.19;53.18;95185.22;5067559;28;20024;-76
2022/03/05 01:49:02;;;;;;;22.40;13.75;;;;;;;-0.24;53.50;95182.94;5086336;28;20127;-75
2022/03/05 01:51:28;;;;;;;33.10;15.25;;;;;;;-0.23;53.71;95184.63;5068533;28;20028;-75
2022/03/05 01:53:53;;;;;;;29.15;15.68;;;;;;;-0.29;53.42;95182.47;5086008;28;20061;-74
2022/03/05 01:56:19;;;;;;;24.80;15.50;;;;;;;-0.26;53.44;95179.59;5085406;28;20024;-76
2022/03/05 01:58:45;;;;;;;28.45;14.40;;;;;;;-0.27;53.25;95180.53;5084080;28;20050;-76
2022/03/05 02:01:10;;;;;;;29.25;15.57;;;;;;;-0.10;53.68;95186.34;5085307;28;20051;-75
2022/03/05 02:03:37;;;;;;;29.90;15.73;;;;;;;-0.07;53.23;95178.19;5084310;28;20486;-76
2022/03/05 02:06:02;;;;;;;25.40;14.48;;;;;;;0.00;53.27;95176.78;5068127;28;20134;-76
2022/03/05 02:08:28;;;;;;;25.33;14.98;;;;;;;-0.12;53.13;95173.28;5044327;28;20542;-76
2022/03/05 02:10:54;;;;;;;26.42;14.68;;;;;;;-0.23;53.51;95181.16;5048116;28;20028;-76
2022/03/05 02:13:19;;;;;;;28.30;14.90;;;;;;;-0.28;53.94;95178.88;5085728;28;20453;-76
2022/03/05 02:15:45;;;;;;;23.50;13.70;;;;;;;-0.33;53.91;95183.63;5084251;28;20508;-76
2022/03/05 02:18:10;;;;;;;26.85;13.68;;;;;;;-0.47;54.40;95179.41;5084902;28;20028;-75
2022/03/05 02:20:38;;;;;;;32.20;14.57;;;;;;;-0.53;54.80;95181.56;5084251;28;20031;-75
2022/03/05 02:23:04;;;;;;;25.48;14.77;;;;;;;-0.35;54.53;95177.63;5084907;28;20030;-75
2022/03/05 02:25:29;;;;;;;24.33;14.90;;;;;;;-0.34;53.72;95179.34;5085169;28;20016;-76
2022/03/05 02:27:55;;;;;;;25.48;15.02;;;;;;;-0.40;54.11;95184.09;5085484;28;20028;-75
2022/03/05 02:30:21;;;;;;;27.40;15.18;;;;;;;-0.39;54.37;95187.59;5067698;28;20034;-76
2022/03/05 02:32:46;;;;;;;28.73;14.63;;;;;;;-0.37;53.67;95190.94;5085693;28;20044;-75
2022/03/05 02:35:12;;;;;;;24.88;15.05;;;;;;;-0.33;53.75;95183.63;5084835;28;20028;-75
2022/03/05 02:37:37;;;;;;;27.58;15.70;;;;;;;-0.23;53.32;95186.44;5066617;28;20456;-75
2022/03/05 02:40:03;;;;;;;33.00;15.40;;;;;;;-0.29;53.63;95177.19;5085021;28;20028;-75
2022/03/05 02:42:28;;;;;;;25.50;15.43;;;;;;;-0.24;53.39;95180.31;5089042;28;20409;-75
2022/03/05 02:44:54;;;;;;;25.80;14.98;;;;;;;-0.22;53.39;95188.09;5084712;28;20426;-75
2022/03/05 02:47:19;;;;;;;27.88;15.88;;;;;;;-0.15;52.88;95184.06;5083548;28;20471;-75
2022/03/05 02:49:45;;;;;;;25.80;14.88;;;;;;;-0.15;52.33;95179.63;5085906;28;20032;-74
2022/03/05 02:52:10;;;;;;;28.02;15.05;;;;;;;-0.15;52.53;95182.25;5085789;28;20028;-75
2022/03/05 02:54:35;;;;;;;27.98;14.82;;;;;;;-0.09;52.69;95178.31;5084676;28;20035;-75
2022/03/05 02:57:01;;;;;;;24.42;14.73;;;;;;;-0.05;52.79;95182.38;5086158;28;20507;-75
2022/03/05 02:59:27;;;;;;;32.75;15.07;;;;;;;-0.09;52.80;95182.72;5083627;28;20043;-76
2022/03/05 03:01:52;;;;;;;29.52;15.88;;;;;;;-0.06;52.66;95182.50;5084915;28;20086;-76
2022/03/05 03:04:18;;;;;;;31.95;15.77;;;;;;;-0.07;52.96;95186.09;5085259;28;20031;-75
2022/03/05 03:06:43;;;;;;;26.65;15.50;;;;;;;-0.13;53.14;95187.41;5087680;28;20048;-75
2022/03/05 03:09:09;;;;;;;29.63;16.48;;;;;;;-0.17;52.46;95186.81;5085562;28;20047;-75
2022/03/05 03:11:34;;;;;;;31.45;17.17;;;;;;;-0.30;52.45;95186.03;5085410;28;20020;-75
2022/03/05 03:13:59;;;;;;;29.15;15.75;;;;;;;-0.42;52.48;95185.19;5084657;28;20060;-75
2022/03/05 03:16:25;;;;;;;29.13;16.77;;;;;;;-0.35;52.74;95188.19;5084427;28;20032;-75
2022/03/05 03:18:50;;;;;;;29.40;16.27;;;;;;;-0.25;52.85;95186.53;5085121;28;20028;-75
2022/03/05 03:21:16;;;;;;;27.30;15.05;;;;;;;-0.30;52.70;95191.31;5083458;28;20036;-75
2022/03/05 03:23:41;;;;;;;27.17;16.27;;;;;;;-0.24;52.84;95188.22;5085995;28;20498;-75
2022/03/05 03:26:06;;;;;;;26.83;16.02;;;;;;;-0.23;53.08;95191.69;5083602;28;20470;-76
2022/03/05 03:28:32;;;;;;;32.25;15.50;;;;;;;-0.19;52.52;95199.25;5085402;28;20012;-75
2022/03/05 03:30:57;;;;;;;30.60;15.93;;;;;;;-0.18;52.80;95190.38;5084370;28;20054;-76
2022/03/05 03:33:24;;;;;;;28.33;15.82;;;;;;;-0.10;52.76;95195.09;5083591;28;20028;-75
2022/03/05 03:35:49;;;;;;;28.35;15.15;;;;;;;-0.11;52.57;95189.94;5085672;28;20035;-76
2022/03/05 03:38:15;;;;;;;29.05;15.43;;;;;;;-0.07;52.70;95191.38;5087018;28;20024;-76
2022/03/05 03:40:40;;;;;;;24.83;15.52;;;;;;;0.00;52.09;95189.97;5089599;28;20028;-75
2022/03/05 03:43:06;;;;;;;27.90;15.18;;;;;;;-0.04;52.73;95191.97;5088658;28;20036;-76
2022/03/05 03:45:31;;;;;;;27.42;15.40;;;;;;;-0.07;52.50;95191.38;5087844;28;20032;-76
2022/03/05 03:47:57;;;;;;;26.75;15.85;;;;;;;-0.11;53.09;95192.56;5088106;28;20036;-77
2022/03/05 03:50:24;;;;;;;32.72;16.42;;;;;;;-0.14;52.85;95189.22;5087634;28;20028;-75
2022/03/05 03:52:50;;;;;;;29.83;16.27;;;;;;;-0.06;51.96;95201.81;5087960;28;20030;-75
2022/03/05 03:55:17;;;;;;;28.77;16.08;;;;;;;-0.19;52.99;95193.97;5087954;28;20028;-74
2022/03/05 03:57:43;;;;;;;27.58;15.80;;;;;;;-0.18;53.38;95202.75;5087844;28;20020;-74
2022/03/05 04:00:10;;;;;;;29.73;15.35;;;;;;;-0.28;53.27;95202.59;5086782;28;20402;-75
2022/03/05 04:02:36;;;;;;;31.50;17.25;;;;;;;-0.32;52.20;95196.69;5087169;28;20129;-75
2022/03/05 04:05:01;;;;;;;26.00;15.25;;;;;;;-0.34;52.96;95203.06;5088125;28;20081;-76
2022/03/05 04:10:11;;;;;;;29.63;15.45;;;;;;;-0.24;52.70;95201.38;5088705;28;20043;-74
2022/03/05 04:12:36;;;;;;;28.98;15.73;;;;;;;-0.32;52.77;95211.69;5086017;28;20032;-75
2022/03/05 04:15:05;;;;;;;31.00;15.30;;;;;;;-0.35;52.07;95209.25;5088550;28;20046;-76
2022/03/05 04:17:30;;;;;;;29.15;14.20;;;;;;;-0.34;52.98;95206.53;5086408;28;20430;-76
2022/03/05 04:19:56;;;;;;;27.67;15.73;;;;;;;-0.29;53.22;95208.84;5088207;28;20028;-76
2022/03/05 04:22:21;;;;;;;25.83;15.13;;;;;;;-0.40;53.58;95210.47;5086339;28;20036;-76
2022/03/05 04:24:48;;;;;;;28.98;15.13;;;;;;;-0.45;52.71;95215.22;5086915;28;20418;-76
2022/03/05 04:27:14;;;;;;;26.42;15.45;;;;;;;-0.50;53.32;95214.75;5086947;28;20028;-76
2022/03/05 04:29:39;;;;;;;30.35;15.68;;;;;;;-0.56;53.52;95215.19;5086397;28;20035;-75
2022/03/05 04:32:05;;;;;;;26.83;14.65;;;;;;;-0.47;53.24;95218.94;5087926;28;20032;-75
2022/03/05 04:34:30;;;;;;;26.50;15.25;;;;;;;-0.49;53.67;95211.16;5086143;28;20020;-75
2022/03/05 04:36:56;;;;;;;27.27;14.73;;;;;;;-0.52;53.33;95214.00;5087095;28;20108;-75
2022/03/05 04:39:21;;;;;;;28.52;14.32;;;;;;;-0.55;53.75;95220.34;5086175;28;20047;-74
2022/03/05 04:41:47;;;;;;;32.72;16.40;;;;;;;-0.62;53.92;95216.50;5066003;28;20407;-74
2022/03/05 04:44:12;;;;;;;29.27;15.15;;;;;;;-0.63;54.31;95210.38;5066158;28;20414;-76
2022/03/05 04:46:38;;;;;;;26.10;14.55;;;;;;;-0.66;55.08;95215.88;5066251;28;20028;-75
2022/03/05 04:49:03;;;;;;;26.63;14.82;;;;;;;-0.77;55.53;95211.41;5065833;28;20407;-75
2022/03/05 04:51:29;;;;;;;26.60;14.80;;;;;;;-0.76;56.12;95217.50;5072954;28;20414;-75
2022/03/05 04:53:54;;;;;;;26.58;14.73;;;;;;;-0.76;56.28;95228.03;5086794;28;20028;-76
2022/03/05 04:56:19;;;;;;;26.65;15.15;;;;;;;-0.71;56.98;95210.09;5066071;28;20036;-74
2022/03/05 04:58:45;;;;;;;29.80;15.75;;;;;;;-0.65;56.24;95216.72;5088019;28;20077;-75
2022/03/05 05:01:10;;;;;;;32.30;16.08;;;;;;;-0.58;56.40;95212.66;5087153;28;20077;-76
2022/03/05 05:03:36;;;;;;;30.83;16.35;;;;;;;-0.61;56.48;95220.78;5063295;28;20506;-75
2022/03/05 05:06:03;;;;;;;30.63;16.05;;;;;;;-0.62;56.26;95219.13;5070848;28;20074;-75
2022/03/05 05:08:28;;;;;;;26.33;15.60;;;;;;;-0.59;56.31;95228.59;5086750;28;20028;-76
2022/03/05 05:10:54;;;;;;;26.48;15.55;;;;;;;-0.56;56.45;95228.34;5086463;28;20027;-77
2022/03/05 05:13:19;;;;;;;27.70;17.20;;;;;;;-0.50;56.45;95225.28;5086166;28;20089;-76
2022/03/05 05:15:47;;;;;;;31.55;17.67;;;;;;;-0.40;55.97;95234.19;5049107;28;20118;-76
2022/03/05 05:18:13;;;;;;;27.70;16.98;;;;;;;-0.44;56.17;95238.00;5064981;28;20017;-76
2022/03/05 05:20:38;;;;;;;34.10;18.50;;;;;;;-0.47;55.60;95238.25;5086079;28;20035;-75
2022/03/05 05:23:03;;;;;;;31.58;18.88;;;;;;;-0.54;55.34;95237.00;5086654;28;20024;-75
2022/03/05 05:25:29;;;;;;;27.70;17.42;;;;;;;-0.50;55.36;95244.56;5068158;28;20024;-76
2022/03/05 05:27:54;;;;;;;31.70;16.85;;;;;;;-0.50;55.81;95249.00;5085431;28;20436;-75
2022/03/05 05:30:20;;;;;;;27.75;16.58;;;;;;;-0.53;56.01;95257.97;5085146;28;20024;-76
2022/03/05 05:32:45;;;;;;;26.50;17.70;;;;;;;-0.47;55.96;95261.94;5069213;28;20430;-76
2022/03/05 05:35:11;;;;;;;33.05;17.52;;;;;;;-0.51;56.23;95274.50;5066985;28;20089;-75
2022/03/05 05:37:36;;;;;;;29.92;16.58;;;;;;;-0.53;56.86;95275.56;5046191;28;20131;-75
2022/03/05 05:40:02;;;;;;;31.55;17.10;;;;;;;-0.64;56.59;95274.56;5074747;28;20490;-77
2022/03/05 05:42:28;;;;;;;29.20;16.95;;;;;;;-0.67;57.24;95279.19;5084694;28;20494;-77
2022/03/05 05:44:53;;;;;;;31.25;18.00;;;;;;;-0.60;56.37;95290.13;5086993;28;20020;-77
2022/03/05 05:47:19;;;;;;;32.17;18.23;;;;;;;-0.56;56.59;95291.59;5084904;28;20016;-77
2022/03/05 05:49:44;;;;;;;34.30;18.00;;;;;;;-0.63;57.16;95286.75;5083342;28;20480;-77
2022/03/05 05:52:10;;;;;;;38.85;19.10;;;;;;;-0.56;56.52;95289.81;5076989;28;20024;-75
2022/03/05 05:54:35;;;;;;;34.85;17.00;;;;;;;-0.52;56.39;95293.91;5085425;28;20495;-77
2022/03/05 05:57:01;;;;;;;32.95;18.38;;;;;;;-0.38;57.18;95295.53;5085659;28;20044;-77
2022/03/05 05:59:26;;;;;;;35.53;18.17;;;;;;;-0.35;57.21;95294.44;5089021;28;20031;-74
2022/03/05 06:01:52;;;;;;;38.92;19.80;;;;;;;-0.24;57.40;95298.09;5086795;28;20020;-76
2022/03/05 06:04:17;;;;;;;35.00;20.35;;;;;;;-0.24;56.89;95296.28;5085457;28;20035;-77
2022/03/05 06:06:42;;;;;;;35.58;19.50;;;;;;;-0.20;56.23;95295.13;5087465;28;20056;-77
2022/03/05 06:09:08;;;;;;;34.83;20.02;;;;;;;-0.08;56.39;95301.25;5085483;28;20040;-76
2022/03/05 06:11:34;;;;;;;35.38;19.85;;;;;;;-0.09;56.97;95306.66;5085542;28;20028;-77
2022/03/05 06:13:59;;;;;;;34.25;19.35;;;;;;;-0.05;56.74;95310.75;5067652;28;20020;-76
2022/03/05 06:16:25;;;;;;;38.92;19.90;;;;;;;0.09;56.27;95310.56;5084531;28;20032;-76
2022/03/05 06:18:50;;;;;;;36.88;19.95;;;;;;;-0.02;56.54;95315.81;5050876;28;20031;-77
2022/03/05 06:21:16;;;;;;;31.90;18.20;;;;;;;0.04;56.03;95304.78;5084904;28;20028;-77
2022/03/05 06:23:41;;;;;;;32.83;19.00;;;;;;;0.18;56.68;95310.84;5084229;28;20031;-76
2022/03/05 06:26:06;;;;;;;37.58;19.58;;;;;;;0.29;55.85;95304.75;5068053;28;20028;-78
2022/03/05 06:28:32;;;;;;;34.22;18.17;;;;;;;0.41;55.59;95310.88;5064751;28;20506;-76
2022/03/05 06:30:58;;;;;;;35.13;19.63;;;;;;;0.46;55.84;95303.44;5097510;28;20039;-78
2022/03/05 06:33:24;;;;;;;30.20;18.85;;;;;;;0.48;55.57;95318.19;5067071;28;20048;-78
2022/03/05 06:35:49;;;;;;;38.00;21.35;;;;;;;0.43;55.86;95308.97;5083371;28;20023;-78
2022/03/05 06:38:14;;;;;;;33.75;19.38;;;;;;;0.58;55.46;95318.31;5083568;28;20024;-77
2022/03/05 06:40:40;;;;;;;34.35;19.23;;;;;;;0.58;55.68;95312.22;5063559;28;20445;-77
2022/03/05 06:43:06;;;;;;;35.13;19.80;;;;;;;0.61;55.56;95315.44;5064847;28;20044;-77
2022/03/05 06:45:31;;;;;;;196.20;112.60;;;;;;;0.65;55.99;95313.41;5085778;28;20530;-79
2022/03/05 06:47:57;;;;;;;47.72;26.52;;;;;;;0.61;55.85;95318.09;5084340;28;20036;-78
2022/03/05 06:50:22;;;;;;;35.53;19.65;;;;;;;0.65;55.76;95320.50;5050671;28;20088;-78
2022/03/05 06:52:47;;;;;;;39.65;19.50;;;;;;;0.61;55.85;95318.09;5082520;28;20020;-77
2022/03/05 06:55:15;;;;;;;35.80;18.55;;;;;;;0.73;55.77;95326.03;5083781;28;20027;-77
2022/03/05 06:57:44;;;;;;;39.15;19.35;;;;;;;0.74;56.05;95325.09;5064220;28;20115;-79
2022/03/05 07:00:10;;;;;;;36.13;20.40;;;;;;;0.80;55.52;95321.97;5084212;28;20040;-77
2022/03/05 07:02:36;;;;;;;41.95;19.70;;;;;;;0.71;55.82;95312.94;5083632;28;20036;-76
2022/03/05 07:05:02;;;;;;;35.65;19.75;;;;;;;0.87;56.63;95322.34;5066683;28;20024;-79
2022/03/05 07:07:27;;;;;;;37.42;19.60;;;;;;;0.86;57.50;95318.84;5065725;28;20032;-78
2022/03/05 07:09:52;;;;;;;39.78;18.95;;;;;;;0.91;55.98;95328.19;5092674;28;20012;-79
2022/03/05 07:12:18;;;;;;;34.55;18.65;;;;;;;1.07;55.86;95317.28;5095909;28;20038;-77
2022/03/05 07:14:48;;;;;;;36.78;17.88;;;;;;;1.12;55.77;95312.47;5088305;28;20040;-77
2022/03/05 07:17:15;;;;;;;40.17;21.13;;;;;;;0.91;56.13;95307.91;5099801;28;20051;-77
2022/03/05 07:19:41;;;;;;;35.97;18.92;;;;;;;1.15;56.58;95298.16;5092914;28;20031;-78
2022/03/05 07:22:06;;;;;;;41.50;20.55;;;;;;;1.26;55.68;95299.97;5074535;28;20028;-77
2022/03/05 07:24:32;;;;;;;36.53;20.02;;;;;;;1.32;55.44;95300.28;5085978;28;20032;-77
2022/03/05 07:26:57;;;;;;;35.35;19.58;;;;;;;1.45;55.39;95300.16;5090295;28;20117;-76
2022/03/05 07:29:22;;;;;;;36.38;19.00;;;;;;;1.62;55.23;95284.75;5088371;28;20055;-79
2022/03/05 07:31:48;;;;;;;38.25;19.90;;;;;;;1.88;54.86;95295.00;5085663;28;20120;-79
2022/03/05 07:34:13;;;;;;;35.28;18.98;;;;;;;2.08;54.51;95293.31;5087393;28;20036;-77
2022/03/05 07:36:39;;;;;;;42.58;19.98;;;;;;;2.39;54.09;95294.34;5086360;28;20028;-77
2022/03/05 07:39:05;;;;;;;35.72;19.85;;;;;;;2.59;53.12;95287.38;5069822;28;20112;-77
2022/03/05 07:41:30;;;;;;;34.40;20.17;;;;;;;2.58;52.47;95294.47;5086491;28;20104;-77
2022/03/05 07:43:55;;;;;;;37.70;20.67;;;;;;;2.22;53.61;95294.00;5069325;28;20541;-80
2022/03/05 07:46:21;;;;;;;36.30;21.73;;;;;;;2.15;53.42;95295.44;5088731;28;20028;-77
2022/03/05 07:48:46;;;;;;;49.70;22.85;;;;;;;2.17;53.70;95297.03;5068539;28;20021;-78
2022/03/05 07:51:12;;;;;;;37.65;20.75;;;;;;;2.18;53.42;95289.91;5069893;28;20441;-78
2022/03/05 07:53:37;;;;;;;41.40;21.90;;;;;;;2.03;54.66;95292.84;5086668;28;20028;-79
2022/03/05 07:56:03;;;;;;;42.63;22.63;;;;;;;2.02;55.06;95296.47;5054370;28;20028;-77
2022/03/05 07:58:28;;;;;;;46.83;24.92;;;;;;;2.07;54.72;95293.44;5085591;28;20031;-77
2022/03/05 08:00:54;;;;;;;44.95;24.27;;;;;;;2.14;54.98;95289.34;5070831;28;20534;-73
2022/03/05 08:03:19;;;;;;;49.13;25.60;;;;;;;2.32;54.34;95300.16;5089854;28;20067;-73
2022/03/05 08:05:45;;;;;;;41.70;25.05;;;;;;;2.30;53.56;95298.63;5087433;28;20020;-71
2022/03/05 08:08:10;;;;;;;51.95;25.85;;;;;;;2.35;53.28;95293.81;5084645;28;20098;-72
2022/03/05 08:10:36;;;;;;;43.85;23.90;;;;;;;2.29;53.57;95292.50;5049203;28;20395;-72
2022/03/05 08:13:01;;;;;;;42.15;24.13;;;;;;;2.43;52.85;95291.34;5050893;28;20039;-71
2022/03/05 08:15:27;;;;;;;45.67;24.73;;;;;;;2.41;53.42;95297.72;5074807;28;20031;-72
2022/03/05 08:17:53;;;;;;;47.08;26.45;;;;;;;2.27;53.44;95294.44;5075250;28;20503;-74
2022/03/05 08:20:19;;;;;;;48.78;27.52;;;;;;;2.20;52.77;95301.22;5078978;28;20112;-74
2022/03/05 08:22:44;;;;;;;47.00;28.33;;;;;;;1.84;53.95;95294.38;5062838;28;20099;-74
2022/03/05 08:25:10;;;;;;;51.65;28.65;;;;;;;1.94;54.73;95307.69;5064651;28;20097;-76
2022/03/05 08:27:35;;;;;;;51.90;29.20;;;;;;;2.03;54.39;95300.78;5080614;28;20506;-76
2022/03/05 08:30:02;;;;;;;49.03;27.88;;;;;;;2.20;54.48;95315.28;5084551;28;20024;-77
2022/03/05 08:32:27;;;;;;;54.83;29.70;;;;;;;2.29;53.81;95305.72;5083034;28;20024;-75
2022/03/05 08:34:53;;;;;;;49.20;28.33;;;;;;;2.29;53.06;95303.06;5084598;28;20098;-76
2022/03/05 08:37:18;;;;;;;56.67;29.33;;;;;;;1.96;53.70;95299.63;5082638;28;20020;-76
2022/03/05 08:39:44;;;;;;;51.65;29.05;;;;;;;1.95;53.96;95301.44;5078979;28;20020;-76
2022/03/05 08:42:09;;;;;;;59.03;29.88;;;;;;;2.06;53.60;95300.53;5083704;28;20035;-75
2022/03/05 08:44:34;;;;;;;54.22;28.95;;;;;;;2.28;53.83;95301.41;5080975;28;20032;-75
2022/03/05 08:47:00;;;;;;;49.92;27.70;;;;;;;2.54;52.86;95305.47;5063567;28;20017;-76
2022/03/05 08:49:25;;;;;;;48.92;26.67;;;;;;;2.64;51.63;95300.22;5066365;28;20171;-75
2022/03/05 08:51:51;;;;;;;52.03;27.83;;;;;;;2.65;51.56;95301.91;5066922;28;20425;-75
2022/03/05 08:54:17;;;;;;;55.45;28.13;;;;;;;2.77;51.00;95305.31;5050344;28;20379;-73
2022/03/05 08:56:43;;;;;;;47.97;27.85;;;;;;;2.88;51.07;95296.44;5060842;28;20032;-74
2022/03/05 08:59:08;;;;;;;47.92;28.85;;;;;;;3.12;50.88;95304.06;5080582;28;20028;-77
2022/03/05 09:01:34;;;;;;;58.35;28.42;;;;;;;3.35;50.46;95298.56;5085390;28;20016;-75
2022/03/05 09:03:59;;;;;;;59.15;29.60;;;;;;;3.54;50.05;95310.19;5081588;28;20024;-74
2022/03/05 09:06:25;;;;;;;52.42;30.33;;;;;;;3.55;50.43;95312.72;5082927;28;20054;-74
2022/03/05 09:08:50;;;;;;;47.20;27.55;;;;;;;3.53;49.60;95306.69;5083548;28;20055;-75
2022/03/05 09:11:16;;;;;;;47.85;28.70;;;;;;;3.56;49.60;95305.59;5080663;28;20032;-75
2022/03/05 09:13:41;;;;;;;52.83;28.67;;;;;;;3.48;50.31;95302.78;5064388;28;20020;-74
2022/03/05 09:16:06;;;;;;;50.85;27.73;;;;;;;3.41;49.76;95291.88;5080266;28;20498;-76
2022/03/05 09:18:32;;;;;;;49.13;26.70;;;;;;;3.60;50.25;95299.03;5083026;28;20023;-74
2022/03/05 09:20:57;;;;;;;45.28;26.02;;;;;;;3.51;49.96;95302.50;5080111;28;20024;-76
2022/03/05 09:23:23;;;;;;;47.50;26.73;;;;;;;3.50;50.20;95301.66;5083494;28;20035;-75
2022/03/05 09:25:48;;;;;;;53.20;29.05;;;;;;;3.53;50.75;95301.38;5082446;28;20020;-75
2022/03/05 09:28:14;;;;;;;49.47;27.73;;;;;;;3.53;50.32;95301.38;5081060;28;20040;-75
2022/03/05 09:30:39;;;;;;;51.55;28.08;;;;;;;3.71;50.71;95295.41;5082934;28;20482;-75
2022/03/05 09:33:05;;;;;;;44.58;25.73;;;;;;;3.57;50.25;95292.19;5083810;28;20031;-77
2022/03/05 09:35:30;;;;;;;53.63;29.65;;;;;;;3.62;50.02;95289.13;5064832;28;20024;-76
2022/03/05 09:37:55;;;;;;;56.35;29.17;;;;;;;3.69;50.63;95294.72;5077278;28;20089;-75
2022/03/05 09:40:21;;;;;;;53.60;30.52;;;;;;;3.85;51.10;95282.72;5080255;28;20118;-74
2022/03/05 09:42:46;;;;;;;44.95;27.70;;;;;;;3.87;50.92;95286.09;5083581;28;20024;-75
2022/03/05 09:45:12;;;;;;;50.20;27.30;;;;;;;3.82;51.81;95289.16;5081690;28;20156;-75
2022/03/05 09:47:39;;;;;;;44.80;27.13;;;;;;;4.04;51.42;95274.78;5081918;28;20043;-77
2022/03/05 09:50:06;;;;;;;49.00;28.02;;;;;;;3.99;50.99;95274.34;5082401;28;20043;-77
2022/03/05 09:52:32;;;;;;;52.58;28.52;;;;;;;4.19;51.52;95275.16;5082464;28;20028;-75
2022/03/05 09:54:57;;;;;;;47.10;27.33;;;;;;;4.46;50.73;95267.47;5081647;28;20046;-77
2022/03/05 09:57:23;;;;;;;43.75;26.13;;;;;;;4.47;50.58;95266.47;5081999;28;20104;-77
2022/03/05 09:59:48;;;;;;;40.78;24.88;;;;;;;4.65;51.60;95271.88;5078980;28;20032;-78
2022/03/05 10:02:13;;;;;;;49.72;24.45;;;;;;;4.76;49.96;95278.00;5082854;28;20028;-77
2022/03/05 10:04:40;;;;;;;38.20;23.83;;;;;;;4.73;50.16;95268.50;5082035;28;20032;-76
2022/03/05 10:07:08;;;;;;;37.10;22.17;;;;;;;4.95;49.50;95266.44;5081540;28;21479;-76
2022/03/05 10:09:34;;;;;;;40.53;22.65;;;;;;;5.07;49.00;95267.97;5083136;28;20040;-76
2022/03/05 10:12:00;;;;;;;44.58;23.70;;;;;;;5.07;49.53;95264.47;5077981;28;20043;-77
2022/03/05 10:14:25;;;;;;;35.40;22.67;;;;;;;5.12;50.79;95272.84;5066386;28;20035;-78
2022/03/05 10:16:54;;;;;;;33.15;21.60;;;;;;;5.23;49.55;95271.81;5082549;28;20027;-80
2022/03/05 10:19:21;;;;;;;32.72;21.00;;;;;;;4.94;49.83;95267.44;5063223;28;20066;-77
2022/03/05 10:22:08;;;;;;;35.60;21.92;;;;;;;4.70;50.33;95266.13;5082527;28;20032;-74
2022/03/05 10:24:35;;;;;;;37.13;20.70;;;;;;;4.89;50.62;95267.03;5064609;28;20410;-77
2022/03/05 10:27:01;;;;;;;37.72;22.30;;;;;;;4.73;50.93;95271.16;5066766;28;20414;-77
2022/03/05 10:29:29;;;;;;;33.28;20.92;;;;;;;5.07;49.72;95267.97;5061749;28;20016;-77
2022/03/05 10:32:02;;;;;;;36.33;21.02;;;;;;;5.29;49.64;95262.38;5081897;28;20478;-78
2022/03/05 10:34:30;;;;;;;30.52;18.58;;;;;;;5.52;51.07;95264.63;5081174;28;20091;-79
2022/03/05 10:37:03;;;;;;;29.00;18.80;;;;;;;5.37;50.36;95261.66;5048464;28;20032;-78
2022/03/05 10:39:28;;;;;;;;;;;;;;;5.35;50.54;95255.66;5065986;28;20456;-78
2022/03/05 10:41:55;;;;;;;27.80;17.85;;;;;;;5.35;50.41;95250.31;5081808;28;19947;-78
2022/03/05 10:44:20;;;;;;;30.58;18.52;;;;;;;5.45;50.29;95248.44;5065611;28;20032;-78
2022/03/05 10:46:47;;;;;;;25.90;16.40;;;;;;;5.37;51.67;95243.03;5046234;28;20024;-78
2022/03/05 10:49:19;;;;;;;27.25;17.40;;;;;;;5.37;51.83;95243.03;5066767;28;20056;-77
2022/03/05 10:52:00;;;;;;;28.98;18.55;;;;;;;5.26;51.67;95239.59;5084044;28;20032;-77
2022/03/05 10:54:27;;;;;;;26.17;17.38;;;;;;;5.25;51.58;95239.75;5083022;28;20078;-79
2022/03/05 10:56:55;;;;;;;32.42;19.55;;;;;;;5.25;51.45;95232.59;5088458;28;20106;-77
2022/03/05 10:59:22;;;;;;;31.75;19.85;;;;;;;5.01;52.70;95235.81;5080688;28;20035;-79
2022/03/05 11:01:47;;;;;;;27.38;18.65;;;;;;;5.07;52.14;95225.44;5087457;28;20035;-77
2022/03/05 11:04:13;;;;;;;31.75;18.67;;;;;;;5.01;51.92;95215.38;5050537;28;20032;-78
2022/03/05 11:06:40;;;;;;;33.20;20.77;;;;;;;5.05;53.04;95219.41;5086345;28;20102;-77
2022/03/05 11:09:06;;;;;;;36.13;20.02;;;;;;;5.19;52.48;95219.91;5085716;28;20546;-79
2022/03/05 11:11:32;;;;;;;32.75;18.83;;;;;;;4.98;52.77;95220.97;5064732;28;20584;-77
2022/03/05 11:13:58;;;;;;;29.88;18.42;;;;;;;4.86;52.47;95212.38;5061799;28;20502;-78
2022/03/05 11:16:25;;;;;;;30.10;18.58;;;;;;;4.95;52.67;95213.28;5084502;28;20055;-77
2022/03/05 11:18:51;;;;;;;33.97;20.35;;;;;;;4.94;53.45;95214.28;5066480;28;20036;-76